Time;durP1;ratioP1;P1;durP2;ratioP2;P2;SDS_P1;SDS_P2;PMS_P1;PMS_P2;Temp;Humidity;BMP_temperature;BMP_pressure;BME280_temperature;BME280_humidity;BME280_pressure;Samples;Min_cycle;Max_cycle;Signal;HPM_P1;HPM_P2
2020/12/04 00:00:24;;;;;;;20.88;14.45;;;;;;;;;;5077252;28;20581;-64
2020/12/04 00:02:49;;;;;;;22.57;14.60;;;;;;;;;;5077577;28;20157;-64
2020/12/04 00:05:14;;;;;;;20.40;14.23;;;;;;;;;;5077853;28;20176;-65
2020/12/04 00:07:39;;;;;;;20.20;14.57;;;;;;;;;;5077245;28;20165;-65
2020/12/04 00:10:04;;;;;;;21.57;16.37;;;;;;;;;;5077466;28;20267;-65
2020/12/04 00:12:30;;;;;;;24.60;16.47;;;;;;;;;;5077393;28;20636;-65
2020/12/04 00:14:55;;;;;;;22.23;15.60;;;;;;;;;;5077263;28;20164;-64
2020/12/04 00:17:20;;;;;;;19.83;14.07;;;;;;;;;;5077104;28;20511;-64
2020/12/04 00:19:45;;;;;;;21.80;14.63;;;;;;;;;;5077833;28;20210;-64
2020/12/04 00:22:10;;;;;;;21.90;15.20;;;;;;;;;;5078017;28;20169;-64
2020/12/04 00:24:36;;;;;;;22.37;15.90;;;;;;;;;;5077320;28;20526;-65
2020/12/04 00:27:01;;;;;;;21.13;15.23;;;;;;;;;;5077363;28;20160;-64
2020/12/04 00:29:26;;;;;;;23.48;14.63;;;;;;;;;;5077057;28;20189;-64
2020/12/04 00:31:52;;;;;;;23.10;15.80;;;;;;;;;;5076359;28;20203;-64
2020/12/04 00:34:17;;;;;;;39.37;21.73;;;;;;;;;;5077247;28;20215;-60
2020/12/04 00:36:47;;;;;;;28.77;17.40;;;;;;;;;;5076980;28;20513;-57
2020/12/04 00:39:12;;;;;;;20.43;15.47;;;;;;;;;;5077087;28;20165;-59
2020/12/04 00:41:37;;;;;;;20.37;14.80;;;;;;;;;;5077313;28;20426;-64
2020/12/04 00:44:02;;;;;;;19.93;16.30;;;;;;;;;;5077012;28;20165;-64
2020/12/04 00:46:27;;;;;;;20.20;15.63;;;;;;;;;;5076717;28;20173;-64
2020/12/04 00:48:53;;;;;;;24.53;15.40;;;;;;;;;;5077275;28;20471;-65
2020/12/04 00:51:18;;;;;;;20.25;15.75;;;;;;;;;;5076950;28;20169;-64
2020/12/04 00:53:43;;;;;;;20.97;13.17;;;;;;;;;;5076979;28;20250;-63
2020/12/04 00:56:08;;;;;;;21.00;15.15;;;;;;;;;;5077263;28;20193;-62
2020/12/04 00:58:33;;;;;;;19.63;14.80;;;;;;;;;;5077024;28;20169;-64
2020/12/04 01:01:00;;;;;;;20.13;14.67;;;;;;;;;;5076780;28;20554;-64
2020/12/04 01:03:25;;;;;;;22.23;15.73;;;;;;;;;;5077110;28;20165;-64
2020/12/04 01:05:50;;;;;;;19.57;14.90;;;;;;;;;;5076813;28;20502;-64
2020/12/04 01:08:15;;;;;;;22.17;14.18;;;;;;;;;;5076571;28;20165;-64
2020/12/04 01:10:40;;;;;;;23.05;16.45;;;;;;;;;;5076642;28;20237;-64
2020/12/04 01:13:05;;;;;;;18.80;13.40;;;;;;;;;;5076553;28;20208;-64
2020/12/04 01:15:31;;;;;;;22.57;14.80;;;;;;;;;;5077231;28;20169;-64
2020/12/04 01:17:56;;;;;;;21.23;14.10;;;;;;;;;;5076494;28;20203;-63
2020/12/04 01:20:21;;;;;;;22.03;15.53;;;;;;;;;;5076575;28;20199;-64
2020/12/04 01:22:47;;;;;;;21.95;15.23;;;;;;;;;;5077125;28;20154;-64
2020/12/04 01:25:12;;;;;;;21.90;15.33;;;;;;;;;;5076765;28;20565;-64
2020/12/04 01:27:37;;;;;;;20.75;15.13;;;;;;;;;;5076659;28;20168;-65
2020/12/04 01:30:02;;;;;;;19.80;12.87;;;;;;;;;;5077042;28;20572;-65
2020/12/04 01:32:27;;;;;;;23.40;15.53;;;;;;;;;;5076682;28;20189;-64
2020/12/04 01:34:52;;;;;;;24.83;16.90;;;;;;;;;;5076798;28;20193;-65
2020/12/04 01:37:18;;;;;;;20.17;13.50;;;;;;;;;;5076883;28;20483;-65
2020/12/04 01:39:43;;;;;;;24.35;15.63;;;;;;;;;;5076714;28;20215;-65
2020/12/04 01:42:08;;;;;;;21.77;14.93;;;;;;;;;;5078019;28;20173;-65
2020/12/04 01:44:33;;;;;;;23.23;14.53;;;;;;;;;;5080682;28;20444;-64
2020/12/04 01:48:11;;;;;;;17.83;12.60;;;;;;;;;;5095232;27;20548;-65
2020/12/04 01:50:39;;;;;;;18.70;12.70;;;;;;;;;;5095341;28;20414;-64
2020/12/04 01:53:05;;;;;;;20.43;14.73;;;;;;;;;;5095197;28;20248;-65
2020/12/04 01:55:30;;;;;;;24.13;16.80;;;;;;;;;;5094890;28;20761;-65
2020/12/04 01:57:55;;;;;;;23.20;16.30;;;;;;;;;;5095259;28;20179;-64
2020/12/04 02:00:21;;;;;;;22.85;15.15;;;;;;;;;;5094893;28;20174;-63
2020/12/04 02:02:49;;;;;;;22.50;14.17;;;;;;;;;;5095070;28;20252;-63
2020/12/04 02:05:15;;;;;;;24.87;17.00;;;;;;;;;;5095166;28;20174;-63
2020/12/04 02:07:45;;;;;;;23.73;16.40;;;;;;;;;;5094652;28;20449;-63
2020/12/04 02:10:15;;;;;;;22.47;16.47;;;;;;;;;;5094488;28;20406;-63
2020/12/04 02:12:41;;;;;;;22.50;15.37;;;;;;;;;;5094377;28;20493;-62
2020/12/04 02:15:08;;;;;;;21.03;14.90;;;;;;;;;;5094929;28;20410;-63
2020/12/04 02:17:34;;;;;;;23.00;15.90;;;;;;;;;;5094692;28;20399;-64
2020/12/04 02:19:59;;;;;;;25.30;16.50;;;;;;;;;;5094564;28;20451;-63
2020/12/04 02:22:25;;;;;;;23.30;13.43;;;;;;;;;;5094652;28;20180;-63
2020/12/04 02:24:53;;;;;;;16.57;11.27;;;;;;;;;;5094957;28;20238;-63
2020/12/04 02:27:18;;;;;;;22.90;15.43;;;;;;;;;;5094109;28;20192;-64
2020/12/04 02:29:43;;;;;;;24.90;17.10;;;;;;;;;;5094429;28;20414;-62
2020/12/04 02:32:10;;;;;;;23.67;15.10;;;;;;;;;;5094723;28;20204;-63
2020/12/04 02:34:35;;;;;;;21.57;13.50;;;;;;;;;;5094345;28;20438;-63
2020/12/04 02:37:00;;;;;;;20.17;12.83;;;;;;;;;;5094193;28;20489;-65
2020/12/04 02:39:25;;;;;;;22.38;15.77;;;;;;;;;;5095628;28;20176;-64
2020/12/04 02:41:50;;;;;;;21.02;12.88;;;;;;;;;;5097548;28;20176;-66
2020/12/04 02:44:50;;;;;;;21.77;14.55;;;;;;;;;;5096793;28;20183;-64
2020/12/04 02:47:15;;;;;;;23.43;16.53;;;;;;;;;;5093907;28;20474;-63
2020/12/04 02:49:40;;;;;;;29.75;16.15;;;;;;;;;;5094228;28;20476;-63
2020/12/04 02:52:05;;;;;;;25.10;14.57;;;;;;;;;;5094163;28;20501;-63
2020/12/04 02:54:30;;;;;;;23.48;16.02;;;;;;;;;;5094500;28;20180;-63
2020/12/04 02:56:55;;;;;;;21.67;15.33;;;;;;;;;;5094133;28;20176;-63
2020/12/04 02:59:21;;;;;;;21.38;12.30;;;;;;;;;;5081541;28;20165;-63
2020/12/04 03:01:46;;;;;;;23.02;14.88;;;;;;;;;;5080454;28;20399;-63
2020/12/04 03:04:11;;;;;;;26.65;14.90;;;;;;;;;;5080644;28;20192;-62
2020/12/04 03:06:36;;;;;;;24.50;14.60;;;;;;;;;;5080360;28;20196;-63
2020/12/04 03:09:01;;;;;;;25.07;13.00;;;;;;;;;;5080352;28;20187;-62
2020/12/04 03:11:27;;;;;;;31.43;17.20;;;;;;;;;;5080587;28;20168;-64
2020/12/04 03:13:52;;;;;;;26.13;16.60;;;;;;;;;;5080336;28;20161;-62
2020/12/04 03:16:17;;;;;;;26.37;16.33;;;;;;;;;;5080074;28;20161;-63
2020/12/04 03:18:43;;;;;;;24.30;15.90;;;;;;;;;;5080444;28;20210;-64
2020/12/04 03:21:08;;;;;;;28.13;15.70;;;;;;;;;;5079867;28;20188;-62
2020/12/04 03:23:33;;;;;;;24.43;15.67;;;;;;;;;;5080129;28;20171;-62
2020/12/04 03:25:58;;;;;;;22.27;15.07;;;;;;;;;;5080027;28;20161;-63
2020/12/04 03:28:24;;;;;;;24.43;14.90;;;;;;;;;;5079841;28;20200;-63
2020/12/04 03:30:49;;;;;;;26.13;14.80;;;;;;;;;;5079735;28;20164;-64
2020/12/04 03:33:14;;;;;;;29.60;16.43;;;;;;;;;;5080226;28;20157;-63
2020/12/04 03:35:39;;;;;;;19.73;13.87;;;;;;;;;;5079707;28;20165;-62
2020/12/04 03:38:04;;;;;;;22.30;13.20;;;;;;;;;;5080656;28;20548;-63
2020/12/04 03:40:30;;;;;;;19.80;13.10;;;;;;;;;;5080143;28;20161;-62
2020/12/04 03:42:55;;;;;;;23.73;16.17;;;;;;;;;;5080130;28;20172;-62
2020/12/04 03:45:20;;;;;;;22.20;15.93;;;;;;;;;;5079541;28;20248;-62
2020/12/04 03:47:45;;;;;;;26.00;15.90;;;;;;;;;;5079192;28;20236;-63
2020/12/04 03:50:10;;;;;;;23.70;15.77;;;;;;;;;;5079428;28;20573;-63
2020/12/04 03:52:35;;;;;;;27.37;15.77;;;;;;;;;;5079549;28;20172;-63
2020/12/04 03:55:00;;;;;;;20.77;13.57;;;;;;;;;;5079015;28;20169;-63
2020/12/04 03:57:26;;;;;;;21.27;15.53;;;;;;;;;;5079204;28;20522;-62
2020/12/04 03:59:51;;;;;;;22.88;14.40;;;;;;;;;;5079622;28;20191;-63
2020/12/04 04:02:16;;;;;;;24.03;16.40;;;;;;;;;;5079293;28;20169;-63
2020/12/04 04:04:41;;;;;;;22.97;15.43;;;;;;;;;;5079439;28;20161;-63
2020/12/04 04:07:06;;;;;;;23.77;13.27;;;;;;;;;;5079223;28;20189;-63
2020/12/04 04:09:32;;;;;;;22.90;14.43;;;;;;;;;;5078101;28;20227;-62
2020/12/04 04:11:57;;;;;;;18.75;12.70;;;;;;;;;;5078950;28;20455;-62
2020/12/04 04:14:22;;;;;;;23.40;14.10;;;;;;;;;;5079294;28;20149;-62
2020/12/04 04:16:47;;;;;;;20.90;15.10;;;;;;;;;;5078755;28;20206;-63
2020/12/04 04:19:12;;;;;;;19.25;13.38;;;;;;;;;;5078882;28;20153;-63
2020/12/04 04:21:39;;;;;;;22.63;16.40;;;;;;;;;;5079252;28;20165;-61
2020/12/04 04:24:05;;;;;;;27.57;17.87;;;;;;;;;;5078809;28;20161;-64
2020/12/04 04:26:30;;;;;;;23.60;15.97;;;;;;;;;;5078457;28;20533;-63
2020/12/04 04:28:55;;;;;;;23.70;15.77;;;;;;;;;;5078761;28;20211;-63
2020/12/04 04:31:20;;;;;;;25.93;16.53;;;;;;;;;;5078465;28;20172;-62
2020/12/04 04:33:45;;;;;;;19.48;13.07;;;;;;;;;;5078631;28;20452;-62
2020/12/04 04:36:11;;;;;;;25.02;15.07;;;;;;;;;;5078658;28;20169;-63
2020/12/04 04:38:36;;;;;;;21.70;13.77;;;;;;;;;;5078485;28;20161;-62
2020/12/04 04:41:01;;;;;;;19.83;15.00;;;;;;;;;;5078287;28;20153;-63
2020/12/04 04:43:27;;;;;;;24.17;15.83;;;;;;;;;;5078806;28;20190;-63
2020/12/04 04:45:53;;;;;;;22.75;13.32;;;;;;;;;;5078131;28;20163;-62
2020/12/04 04:48:21;;;;;;;23.40;15.17;;;;;;;;;;5078352;28;20442;-61
2020/12/04 04:50:47;;;;;;;23.90;14.40;;;;;;;;;;5078522;28;20457;-62
2020/12/04 04:53:12;;;;;;;24.80;16.43;;;;;;;;;;5078135;28;20406;-62
2020/12/04 04:55:40;;;;;;;24.43;15.57;;;;;;;;;;5078096;28;20173;-62
2020/12/04 04:58:06;;;;;;;29.40;16.60;;;;;;;;;;5078118;28;20230;-62
2020/12/04 05:00:31;;;;;;;21.93;14.83;;;;;;;;;;5077766;28;20407;-62
2020/12/04 05:02:56;;;;;;;21.93;15.43;;;;;;;;;;5077895;28;20169;-63
2020/12/04 05:05:38;;;;;;;18.92;12.18;;;;;;;;;;5078397;28;20527;-62
2020/12/04 05:08:08;;;;;;;24.20;15.00;;;;;;;;;;5077719;28;20230;-62
2020/12/04 05:10:33;;;;;;;19.27;13.17;;;;;;;;;;5077786;28;20407;-63
2020/12/04 05:12:59;;;;;;;25.17;16.00;;;;;;;;;;5077765;28;20797;-63
2020/12/04 05:15:25;;;;;;;21.77;14.83;;;;;;;;;;5077824;28;20188;-62
2020/12/04 05:18:05;;;;;;;22.90;14.37;;;;;;;;;;5078390;28;20406;-62
2020/12/04 05:20:31;;;;;;;26.33;13.00;;;;;;;;;;5078772;28;20399;-63
2020/12/04 05:22:58;;;;;;;26.17;16.77;;;;;;;;;;5077896;28;20869;-63
2020/12/04 05:25:23;;;;;;;25.40;16.50;;;;;;;;;;5077728;28;20157;-62
2020/12/04 05:27:48;;;;;;;22.90;14.23;;;;;;;;;;5077563;28;20454;-63
2020/12/04 05:30:23;;;;;;;25.63;16.37;;;;;;;;;;5077867;28;20172;-62
2020/12/04 05:32:59;;;;;;;22.97;14.63;;;;;;;;;;5077740;28;20182;-62
2020/12/04 05:35:24;;;;;;;19.40;13.40;;;;;;;;;;5077696;28;20426;-62
2020/12/04 05:37:49;;;;;;;21.30;15.27;;;;;;;;;;5077621;28;20403;-62
2020/12/04 05:40:22;;;;;;;22.07;15.60;;;;;;;;;;5077592;28;20164;-61
2020/12/04 05:42:48;;;;;;;22.50;16.27;;;;;;;;;;5077870;28;20157;-62
2020/12/04 05:45:13;;;;;;;24.45;17.50;;;;;;;;;;5078223;28;20611;-62
2020/12/04 05:47:42;;;;;;;24.42;14.80;;;;;;;;;;5077301;28;20280;-62
2020/12/04 05:50:09;;;;;;;24.83;15.80;;;;;;;;;;5077930;28;20161;-63
2020/12/04 05:52:35;;;;;;;27.80;17.10;;;;;;;;;;5077542;28;20396;-63
2020/12/04 05:55:01;;;;;;;25.47;16.67;;;;;;;;;;5077169;28;20835;-62
2020/12/04 05:57:27;;;;;;;28.10;16.73;;;;;;;;;;5077530;28;20193;-61
2020/12/04 05:59:52;;;;;;;22.87;15.70;;;;;;;;;;5077130;28;20414;-62
2020/12/04 06:02:18;;;;;;;21.15;14.18;;;;;;;;;;5077572;28;20399;-63
2020/12/04 06:04:43;;;;;;;22.23;15.43;;;;;;;;;;5077815;28;20167;-63
2020/12/04 06:07:11;;;;;;;24.10;15.23;;;;;;;;;;5076933;28;20193;-61
2020/12/04 06:09:36;;;;;;;30.23;18.27;;;;;;;;;;5077139;28;20169;-63
2020/12/04 06:12:11;;;;;;;24.30;15.20;;;;;;;;;;5077491;28;20392;-63
2020/12/04 06:14:36;;;;;;;25.10;15.60;;;;;;;;;;5077221;28;20189;-61
2020/12/04 06:17:01;;;;;;;21.07;13.57;;;;;;;;;;5076961;28;20404;-61
2020/12/04 06:19:33;;;;;;;18.92;14.40;;;;;;;;;;5077333;28;20522;-62
2020/12/04 06:22:08;;;;;;;27.23;18.53;;;;;;;;;;5077090;28;20487;-61
2020/12/04 06:25:06;;;;;;;26.10;18.30;;;;;;;;;;5077306;28;20406;-61
2020/12/04 06:27:34;;;;;;;21.40;14.90;;;;;;;;;;5075982;28;20762;-62
2020/12/04 06:29:59;;;;;;;28.87;17.67;;;;;;;;;;5077055;28;20403;-62
2020/12/04 06:32:38;;;;;;;27.30;17.67;;;;;;;;;;5077372;28;20734;-63
2020/12/04 06:35:04;;;;;;;26.40;17.60;;;;;;;;;;5084086;28;20206;-63
2020/12/04 06:37:39;;;;;;;26.13;16.83;;;;;;;;;;5085354;28;20424;-62
2020/12/04 06:40:26;;;;;;;26.73;17.60;;;;;;;;;;5083630;28;20413;-63
2020/12/04 06:42:52;;;;;;;26.60;18.60;;;;;;;;;;5080866;28;20399;-62
2020/12/04 06:45:17;;;;;;;26.30;16.00;;;;;;;;;;5080384;28;20407;-62
2020/12/04 06:47:43;;;;;;;32.60;19.17;;;;;;;;;;5080033;28;20477;-63
2020/12/04 06:50:10;;;;;;;28.50;17.63;;;;;;;;;;5080377;28;20538;-62
2020/12/04 06:52:35;;;;;;;27.60;17.47;;;;;;;;;;5080643;28;20179;-62
2020/12/04 06:55:00;;;;;;;23.40;17.63;;;;;;;;;;5080087;28;20423;-61
2020/12/04 06:57:26;;;;;;;26.60;18.27;;;;;;;;;;5080353;28;20164;-62
2020/12/04 06:59:51;;;;;;;26.70;18.02;;;;;;;;;;5080508;28;20222;-63
2020/12/04 07:02:17;;;;;;;29.23;18.70;;;;;;;;;;5080105;28;20165;-62
2020/12/04 07:04:46;;;;;;;29.97;17.20;;;;;;;;;;5080309;28;20197;-63
2020/12/04 07:07:13;;;;;;;26.03;16.30;;;;;;;;;;5080353;28;20777;-63
2020/12/04 07:09:39;;;;;;;26.63;15.00;;;;;;;;;;5080104;28;20724;-63
2020/12/04 07:12:04;;;;;;;32.77;20.33;;;;;;;;;;5080005;28;20407;-63
2020/12/04 07:14:30;;;;;;;28.63;19.40;;;;;;;;;;5080495;28;20460;-62
2020/12/04 07:16:55;;;;;;;25.27;17.17;;;;;;;;;;5079810;28;20204;-63
2020/12/04 07:19:21;;;;;;;26.97;17.90;;;;;;;;;;5079833;28;20192;-62
2020/12/04 07:21:46;;;;;;;29.50;18.03;;;;;;;;;;5080071;28;20451;-63
2020/12/04 07:24:12;;;;;;;28.47;18.57;;;;;;;;;;5079866;28;20165;-62
2020/12/04 07:26:38;;;;;;;25.90;18.37;;;;;;;;;;5079549;28;20193;-62
2020/12/04 07:29:05;;;;;;;25.50;17.33;;;;;;;;;;5080250;28;20161;-63
2020/12/04 07:31:30;;;;;;;28.77;18.90;;;;;;;;;;5079597;28;20425;-67
2020/12/04 07:33:57;;;;;;;24.73;16.50;;;;;;;;;;5079757;28;20490;-62
2020/12/04 07:36:22;;;;;;;31.20;18.63;;;;;;;;;;5079854;28;20161;-62
2020/12/04 07:38:51;;;;;;;23.43;16.60;;;;;;;;;;5079346;28;20678;-62
2020/12/04 07:41:22;;;;;;;23.17;16.70;;;;;;;;;;5079425;28;20602;-64
2020/12/04 07:43:48;;;;;;;29.97;16.43;;;;;;;;;;5079231;28;20429;-62
2020/12/04 07:46:17;;;;;;;26.53;18.77;;;;;;;;;;5079136;28;20773;-63
2020/12/04 07:48:57;;;;;;;25.90;17.87;;;;;;;;;;5079680;28;20166;-63
2020/12/04 07:51:22;;;;;;;23.70;16.80;;;;;;;;;;5079255;28;20396;-62
2020/12/04 07:53:47;;;;;;;27.07;17.20;;;;;;;;;;5079373;28;20456;-62
2020/12/04 07:56:13;;;;;;;31.60;18.70;;;;;;;;;;5079124;28;20172;-62
2020/12/04 07:58:39;;;;;;;24.87;17.77;;;;;;;;;;5078984;28;20149;-63
2020/12/04 08:01:04;;;;;;;29.60;19.20;;;;;;;;;;5079617;28;20221;-62
2020/12/04 08:03:30;;;;;;;27.37;16.23;;;;;;;;;;5079003;28;20407;-62
2020/12/04 08:05:55;;;;;;;25.83;17.97;;;;;;;;;;5078902;28;20565;-62
2020/12/04 08:08:20;;;;;;;23.70;15.87;;;;;;;;;;5079110;28;20189;-64
2020/12/04 08:10:45;;;;;;;28.17;18.50;;;;;;;;;;5078916;28;20177;-63
2020/12/04 08:13:11;;;;;;;21.85;13.70;;;;;;;;;;5078609;28;20161;-63
2020/12/04 08:15:41;;;;;;;30.33;18.73;;;;;;;;;;5079061;28;20165;-63
2020/12/04 08:18:06;;;;;;;24.77;16.97;;;;;;;;;;5078631;28;20518;-63
2020/12/04 08:20:31;;;;;;;35.53;20.77;;;;;;;;;;5077888;28;20483;-62
2020/12/04 08:22:56;;;;;;;28.07;18.60;;;;;;;;;;5078962;28;20165;-62
2020/12/04 08:25:23;;;;;;;29.10;18.60;;;;;;;;;;5078334;28;20158;-61
2020/12/04 08:27:48;;;;;;;26.10;17.87;;;;;;;;;;5078635;28;20461;-62
2020/12/04 08:30:18;;;;;;;29.47;18.40;;;;;;;;;;5078178;28;20411;-62
2020/12/04 08:32:46;;;;;;;27.00;18.10;;;;;;;;;;5078331;28;20180;-62
2020/12/04 08:35:19;;;;;;;24.93;14.07;;;;;;;;;;5078195;28;20831;-62
2020/12/04 08:37:45;;;;;;;21.67;15.33;;;;;;;;;;5078069;28;20792;-63
2020/12/04 08:40:24;;;;;;;27.03;18.43;;;;;;;;;;5078075;28;20403;-62
2020/12/04 08:42:50;;;;;;;26.83;17.83;;;;;;;;;;5078113;28;20418;-63
2020/12/04 08:45:15;;;;;;;29.17;18.73;;;;;;;;;;5078148;28;20486;-61
2020/12/04 08:47:44;;;;;;;28.73;18.50;;;;;;;;;;5077687;28;20236;-63
2020/12/04 08:50:14;;;;;;;26.90;16.77;;;;;;;;;;5077935;28;20173;-61
2020/12/04 08:52:47;;;;;;;29.07;19.07;;;;;;;;;;5078473;28;20716;-62
2020/12/04 08:55:13;;;;;;;25.53;16.60;;;;;;;;;;5077968;28;20427;-63
2020/12/04 08:57:39;;;;;;;29.90;17.70;;;;;;;;;;5077462;28;20448;-63
2020/12/04 09:00:05;;;;;;;29.57;19.13;;;;;;;;;;5077974;28;20486;-62
2020/12/04 09:02:30;;;;;;;27.10;17.67;;;;;;;;;;5077885;28;20180;-62
2020/12/04 09:04:55;;;;;;;32.72;18.20;;;;;;;;;;5077916;28;20537;-62
2020/12/04 09:07:21;;;;;;;32.67;18.70;;;;;;;;;;5078060;28;20184;-62
2020/12/04 09:09:46;;;;;;;30.10;18.23;;;;;;;;;;5077943;28;20197;-63
2020/12/04 09:12:11;;;;;;;30.93;19.07;;;;;;;;;;5077776;28;20169;-63
2020/12/04 09:14:36;;;;;;;28.23;17.48;;;;;;;;;;5078061;28;20547;-63
2020/12/04 09:17:01;;;;;;;27.17;18.17;;;;;;;;;;5077531;28;20157;-62
2020/12/04 09:19:26;;;;;;;24.90;17.60;;;;;;;;;;5077716;28;20161;-62
2020/12/04 09:21:51;;;;;;;24.67;17.57;;;;;;;;;;5078050;28;20534;-61
2020/12/04 09:24:17;;;;;;;27.67;18.40;;;;;;;;;;5077555;28;20175;-63
2020/12/04 09:26:42;;;;;;;23.63;15.33;;;;;;;;;;5077316;28;20197;-62
2020/12/04 09:29:07;;;;;;;28.83;17.40;;;;;;;;;;5077955;28;20495;-61
2020/12/04 09:31:33;;;;;;;27.35;19.25;;;;;;;;;;5077326;28;20164;-62
2020/12/04 09:33:58;;;;;;;26.67;17.83;;;;;;;;;;5077116;28;20173;-63
2020/12/04 09:36:23;;;;;;;28.63;19.00;;;;;;;;;;5077686;28;20611;-61
2020/12/04 09:38:48;;;;;;;27.83;17.43;;;;;;;;;;5077427;28;20442;-62
2020/12/04 09:41:13;;;;;;;29.05;18.73;;;;;;;;;;5077068;28;20180;-63
2020/12/04 09:43:38;;;;;;;29.35;18.83;;;;;;;;;;5077876;28;20165;-63
2020/12/04 09:46:04;;;;;;;28.48;17.13;;;;;;;;;;5076911;28;20255;-63
2020/12/04 09:48:29;;;;;;;27.37;17.53;;;;;;;;;;5077325;28;20415;-62
2020/12/04 09:50:55;;;;;;;25.50;16.63;;;;;;;;;;5077549;28;20384;-62
2020/12/04 09:53:20;;;;;;;27.57;18.17;;;;;;;;;;5077292;28;20161;-62
2020/12/04 09:55:45;;;;;;;29.13;19.70;;;;;;;;;;5077025;28;20168;-62
2020/12/04 09:58:11;;;;;;;27.47;18.37;;;;;;;;;;5077625;28;20393;-62
2020/12/04 10:00:36;;;;;;;27.17;18.50;;;;;;;;;;5077233;28;20175;-62
2020/12/04 10:03:01;;;;;;;24.60;17.27;;;;;;;;;;5077345;28;20157;-62
2020/12/04 10:05:26;;;;;;;27.03;17.87;;;;;;;;;;5077418;28;20169;-63
2020/12/04 10:07:51;;;;;;;31.77;20.67;;;;;;;;;;5077011;28;20227;-63
2020/12/04 10:10:17;;;;;;;29.00;18.93;;;;;;;;;;5080973;28;20173;-63
2020/12/04 10:12:42;;;;;;;26.23;16.90;;;;;;;;;;5081377;28;20196;-62
2020/12/04 10:15:07;;;;;;;24.73;17.65;;;;;;;;;;5081059;28;20172;-62
2020/12/04 10:17:32;;;;;;;25.47;18.10;;;;;;;;;;5081038;28;20176;-62
2020/12/04 10:19:57;;;;;;;28.00;15.97;;;;;;;;;;5081468;28;20167;-62
2020/12/04 10:22:22;;;;;;;26.88;17.70;;;;;;;;;;5080749;28;20176;-62
2020/12/04 10:24:48;;;;;;;23.30;16.83;;;;;;;;;;5080788;28;20206;-62
2020/12/04 10:27:13;;;;;;;26.30;18.25;;;;;;;;;;5081002;28;20192;-63
2020/12/04 10:29:38;;;;;;;25.40;16.77;;;;;;;;;;5080749;28;20527;-63
2020/12/04 10:32:03;;;;;;;26.97;17.87;;;;;;;;;;5080547;28;20248;-63
2020/12/04 10:34:28;;;;;;;23.63;15.90;;;;;;;;;;5080933;28;20196;-63
2020/12/04 10:36:53;;;;;;;30.15;18.10;;;;;;;;;;5080476;28;20473;-62
2020/12/04 10:39:19;;;;;;;28.77;19.50;;;;;;;;;;5080668;28;20165;-62
2020/12/04 10:41:44;;;;;;;26.83;17.67;;;;;;;;;;5082652;28;20153;-62
2020/12/04 10:44:10;;;;;;;30.30;19.37;;;;;;;;;;5084732;28;20161;-62
2020/12/04 10:46:36;;;;;;;25.20;16.10;;;;;;;;;;5082732;28;20628;-63
2020/12/04 10:49:01;;;;;;;24.27;17.33;;;;;;;;;;5081195;28;20395;-62
2020/12/04 10:51:27;;;;;;;28.77;18.73;;;;;;;;;;5080331;28;20410;-62
2020/12/04 10:53:52;;;;;;;23.93;16.60;;;;;;;;;;5080204;28;20215;-64
2020/12/04 10:56:18;;;;;;;22.00;15.80;;;;;;;;;;5080441;28;20200;-62
2020/12/04 10:58:43;;;;;;;25.77;15.27;;;;;;;;;;5080245;28;20561;-61
2020/12/04 11:01:12;;;;;;;23.60;17.30;;;;;;;;;;5079993;28;20157;-65
2020/12/04 11:05:26;;;;;;;26.93;18.70;;;;;;;;;;5080322;28;20195;-66
2020/12/04 11:06:23;;;;;;;27.30;18.60;;;;;;;;;;5079660;28;20469;-64
2020/12/04 11:08:49;;;;;;;25.30;18.10;;;;;;;;;;5080001;28;20407;-63
2020/12/04 11:11:15;;;;;;;29.00;19.00;;;;;;;;;;5080099;28;20182;-64
2020/12/04 11:13:40;;;;;;;28.47;19.60;;;;;;;;;;5080036;28;20399;-64
2020/12/04 11:16:05;;;;;;;32.85;19.67;;;;;;;;;;5080338;28;20403;-64
2020/12/04 11:18:31;;;;;;;25.03;17.33;;;;;;;;;;5079693;28;20177;-64
2020/12/04 11:20:56;;;;;;;29.70;18.67;;;;;;;;;;5079534;28;20161;-65
2020/12/04 11:23:21;;;;;;;21.37;14.77;;;;;;;;;;5080144;28;20208;-65
2020/12/04 11:25:46;;;;;;;27.80;18.40;;;;;;;;;;5079822;28;20436;-65
2020/12/04 11:28:11;;;;;;;25.93;17.13;;;;;;;;;;5079727;28;20224;-66
2020/12/04 11:30:36;;;;;;;26.60;18.13;;;;;;;;;;5080140;28;20153;-66
2020/12/04 11:33:02;;;;;;;28.23;18.43;;;;;;;;;;5079845;28;20572;-67
2020/12/04 11:35:27;;;;;;;27.70;17.80;;;;;;;;;;5080052;28;20172;-70
2020/12/04 11:37:57;;;;;;;25.03;17.63;;;;;;;;;;5080247;28;20161;-66
2020/12/04 11:40:22;;;;;;;28.73;17.87;;;;;;;;;;5078237;28;20165;-65
2020/12/04 11:42:47;;;;;;;27.67;15.63;;;;;;;;;;5079585;28;20414;-64
2020/12/04 11:45:14;;;;;;;30.42;19.60;;;;;;;;;;5079711;28;20453;-67
2020/12/04 11:47:39;;;;;;;25.70;18.23;;;;;;;;;;5079019;28;20274;-66
2020/12/04 11:50:09;;;;;;;28.37;18.17;;;;;;;;;;5079616;28;20411;-66
2020/12/04 11:52:35;;;;;;;26.23;17.23;;;;;;;;;;5079501;28;20157;-65
2020/12/04 11:55:00;;;;;;;30.43;18.37;;;;;;;;;;5079451;28;20789;-66
2020/12/04 11:57:25;;;;;;;24.63;14.73;;;;;;;;;;5078731;28;20172;-66
2020/12/04 11:59:50;;;;;;;25.90;17.50;;;;;;;;;;5080043;28;20200;-66
2020/12/04 12:02:15;;;;;;;26.50;16.38;;;;;;;;;;5079036;28;20194;-65
2020/12/04 12:04:41;;;;;;;25.37;18.40;;;;;;;;;;5079011;28;20408;-65
2020/12/04 12:07:06;;;;;;;24.27;16.30;;;;;;;;;;5081961;28;20196;-66
2020/12/04 12:09:31;;;;;;;24.83;17.00;;;;;;;;;;5079317;28;20169;-66
2020/12/04 12:11:56;;;;;;;28.23;19.93;;;;;;;;;;5079306;28;20184;-67
2020/12/04 12:14:21;;;;;;;30.83;18.48;;;;;;;;;;5079377;28;20161;-65
2020/12/04 12:16:47;;;;;;;26.33;17.93;;;;;;;;;;5078982;28;20161;-66
2020/12/04 12:19:15;;;;;;;25.83;17.80;;;;;;;;;;5078883;28;20161;-67
2020/12/04 12:21:43;;;;;;;25.30;17.50;;;;;;;;;;5078923;28;20282;-65
2020/12/04 12:24:08;;;;;;;26.80;17.60;;;;;;;;;;5078762;28;20392;-65
2020/12/04 12:26:33;;;;;;;25.60;17.30;;;;;;;;;;5077873;28;20451;-65
2020/12/04 12:28:58;;;;;;;25.90;17.70;;;;;;;;;;5067350;28;20253;-65
2020/12/04 12:31:24;;;;;;;26.23;16.77;;;;;;;;;;5057465;28;20520;-65
2020/12/04 12:33:50;;;;;;;27.20;18.90;;;;;;;;;;5058124;28;20165;-65
2020/12/04 12:36:16;;;;;;;26.17;18.40;;;;;;;;;;5058629;28;20158;-65
2020/12/04 12:38:41;;;;;;;25.50;17.80;;;;;;;;;;5058392;28;20461;-64
2020/12/04 12:41:06;;;;;;;27.30;16.90;;;;;;;;;;5058727;28;20162;-66
2020/12/04 12:43:32;;;;;;;26.00;18.70;;;;;;;;;;5058874;28;20162;-64
2020/12/04 12:45:57;;;;;;;27.37;18.17;;;;;;;;;;5057931;28;20180;-68
2020/12/04 12:48:22;;;;;;;27.30;18.27;;;;;;;;;;5064541;28;20335;-65
2020/12/04 12:50:47;;;;;;;29.00;16.07;;;;;;;;;;5066833;28;20193;-68
2020/12/04 12:53:13;;;;;;;25.53;18.57;;;;;;;;;;5076224;28;20172;-67
2020/12/04 12:55:38;;;;;;;23.50;15.93;;;;;;;;;;5076186;28;20274;-68
2020/12/04 12:58:03;;;;;;;27.20;17.13;;;;;;;;;;5092522;28;20168;-66
2020/12/04 13:00:28;;;;;;;22.33;16.57;;;;;;;;;;5080192;28;20227;-68
2020/12/04 13:02:53;;;;;;;25.17;17.60;;;;;;;;;;5090482;28;20195;-66
2020/12/04 13:05:33;;;;;;;23.70;16.27;;;;;;;;;;5086121;28;20168;-64
2020/12/04 13:07:59;;;;;;;25.93;17.87;;;;;;;;;;5076220;28;20204;-66
2020/12/04 13:10:25;;;;;;;26.53;17.40;;;;;;;;;;5084849;28;20426;-68
2020/12/04 13:12:50;;;;;;;25.30;17.00;;;;;;;;;;5082108;28;20407;-66
2020/12/04 13:15:18;;;;;;;26.77;18.00;;;;;;;;;;5087596;28;20176;-66
2020/12/04 13:17:43;;;;;;;26.77;18.03;;;;;;;;;;5088961;28;20202;-64
2020/12/04 13:20:08;;;;;;;24.73;17.03;;;;;;;;;;5079864;28;20832;-64
2020/12/04 13:22:33;;;;;;;22.10;16.38;;;;;;;;;;5079330;28;20232;-64
2020/12/04 13:24:59;;;;;;;24.27;15.98;;;;;;;;;;5089820;28;20173;-65
2020/12/04 13:27:24;;;;;;;25.73;16.33;;;;;;;;;;5086400;28;20195;-64
2020/12/04 13:29:49;;;;;;;20.00;14.52;;;;;;;;;;5082449;28;20172;-64
2020/12/04 13:32:14;;;;;;;20.75;14.50;;;;;;;;;;5092828;28;20236;-65
2020/12/04 13:34:39;;;;;;;23.97;18.17;;;;;;;;;;5080169;28;20426;-65
2020/12/04 13:37:05;;;;;;;24.47;18.37;;;;;;;;;;5088864;28;20181;-65
2020/12/04 13:39:31;;;;;;;28.03;17.87;;;;;;;;;;5087202;28;20213;-65
2020/12/04 13:41:56;;;;;;;23.53;17.07;;;;;;;;;;5081286;28;20441;-64
2020/12/04 13:44:21;;;;;;;24.00;16.73;;;;;;;;;;5091948;28;20275;-65
2020/12/04 13:46:47;;;;;;;27.43;15.87;;;;;;;;;;5080182;28;20218;-66
2020/12/04 13:49:13;;;;;;;26.93;18.17;;;;;;;;;;5081305;28;20157;-65
2020/12/04 13:51:39;;;;;;;24.70;17.43;;;;;;;;;;5079759;28;20264;-65
2020/12/04 13:54:06;;;;;;;27.00;18.13;;;;;;;;;;5080448;28;20169;-65
2020/12/04 13:56:31;;;;;;;25.33;17.70;;;;;;;;;;5092494;28;20407;-65
2020/12/04 13:58:57;;;;;;;25.17;17.63;;;;;;;;;;5082425;28;20413;-64
2020/12/04 14:01:23;;;;;;;22.50;16.90;;;;;;;;;;5086374;28;20271;-62
2020/12/04 14:03:49;;;;;;;24.80;17.90;;;;;;;;;;5090004;28;20555;-64
2020/12/04 14:06:15;;;;;;;26.77;18.50;;;;;;;;;;5079177;28;20403;-66
2020/12/04 14:08:40;;;;;;;29.70;18.33;;;;;;;;;;5091818;28;20887;-63
2020/12/04 14:11:06;;;;;;;33.80;17.87;;;;;;;;;;5083890;28;20163;-65